createdAt,value
2018-09-29T00:01:35.554Z,14.13
2018-09-29T00:04:03.994Z,15.00
2018-09-29T00:06:32.471Z,26.07
2018-09-29T00:09:00.963Z,11.87
2018-09-29T00:11:29.520Z,11.97
2018-09-29T00:13:57.999Z,13.70
2018-09-29T00:16:26.530Z,10.40
2018-09-29T00:18:54.990Z,18.70
2018-09-29T00:21:23.431Z,10.27
2018-09-29T00:23:51.868Z,12.87
2018-09-29T00:26:20.423Z,8.03
2018-09-29T00:28:49.041Z,10.93
2018-09-29T00:31:17.751Z,8.53
2018-09-29T00:33:46.178Z,15.97
2018-09-29T00:36:14.727Z,12.90
2018-09-29T00:38:43.387Z,12.03
2018-09-29T00:41:12.065Z,11.03
2018-09-29T00:43:40.506Z,6.37
2018-09-29T00:46:09.326Z,8.73
2018-09-29T00:48:37.891Z,6.67
2018-09-29T00:51:06.380Z,7.23
2018-09-29T00:53:34.870Z,10.30
2018-09-29T00:56:03.355Z,13.47
2018-09-29T00:58:31.877Z,7.23
2018-09-29T01:01:00.559Z,10.80
2018-09-29T01:03:29.035Z,8.47
2018-09-29T01:05:57.487Z,12.27
2018-09-29T01:08:25.971Z,6.83
2018-09-29T01:10:54.479Z,11.40
2018-09-29T01:13:22.972Z,10.80
2018-09-29T01:15:51.436Z,7.67
2018-09-29T01:21:05.907Z,8.43
2018-09-29T01:23:35.656Z,22.67
2018-09-29T01:26:05.324Z,8.50
2018-09-29T01:28:36.067Z,6.43
2018-09-29T01:31:05.736Z,6.93
2018-09-29T01:33:34.650Z,9.70
2018-09-29T01:36:03.745Z,11.47
2018-09-29T01:38:32.936Z,15.40
2018-09-29T01:41:02.000Z,8.60
2018-09-29T01:43:32.293Z,9.60
2018-09-29T01:46:01.483Z,7.40
2018-09-29T01:48:30.588Z,5.60
2018-09-29T01:51:00.092Z,10.77
2018-09-29T01:56:08.524Z,6.47
2018-09-29T01:58:43.411Z,6.17
2018-09-29T02:04:15.802Z,10.43
2018-09-29T02:06:44.343Z,17.60
2018-09-29T02:09:12.932Z,8.03
2018-09-29T02:11:41.432Z,8.00
2018-09-29T02:14:09.991Z,5.40
2018-09-29T02:16:38.506Z,4.77
2018-09-29T02:19:07.243Z,8.83
2018-09-29T02:21:35.677Z,8.90
2018-09-29T02:24:04.144Z,7.33
2018-09-29T02:26:32.690Z,6.53
2018-09-29T02:29:01.348Z,7.40
2018-09-29T02:31:29.742Z,8.10
2018-09-29T02:33:58.365Z,6.63
2018-09-29T02:36:26.826Z,4.60
2018-09-29T02:38:55.299Z,5.37
2018-09-29T02:41:24.580Z,7.77
2018-09-29T02:43:52.990Z,9.27
2018-09-29T02:46:21.509Z,9.03
2018-09-29T02:48:49.973Z,9.33
2018-09-29T02:54:09.024Z,6.73
2018-09-29T02:56:38.215Z,6.83
2018-09-29T02:59:07.407Z,7.30
2018-09-29T03:01:36.208Z,5.13
2018-09-29T03:04:05.293Z,3.53
2018-09-29T03:06:34.241Z,8.07
2018-09-29T03:09:03.348Z,4.87
2018-09-29T03:11:33.008Z,5.60
2018-09-29T03:14:01.805Z,5.77
2018-09-29T03:16:30.732Z,5.90
2018-09-29T03:19:00.353Z,8.33
2018-09-29T03:21:29.436Z,6.10
2018-09-29T03:23:59.169Z,3.10
2018-09-29T03:26:29.154Z,11.53
2018-09-29T03:28:58.420Z,5.30
2018-09-29T03:31:27.563Z,4.67
2018-09-29T03:33:56.520Z,6.87
2018-09-29T03:36:26.452Z,12.60
2018-09-29T03:38:56.545Z,11.07
2018-09-29T03:41:26.566Z,10.23
2018-09-29T03:43:56.049Z,12.63
2018-09-29T03:46:25.200Z,10.13
2018-09-29T03:48:54.362Z,12.00
2018-09-29T03:51:24.301Z,13.57
2018-09-29T03:53:53.476Z,12.00
2018-09-29T03:56:22.469Z,8.67
2018-09-29T03:58:51.396Z,4.97
2018-09-29T04:01:20.385Z,6.00
2018-09-29T04:03:49.317Z,8.23
2018-09-29T04:06:18.775Z,6.13
2018-09-29T04:08:47.600Z,8.10
2018-09-29T04:11:16.564Z,5.37
2018-09-29T04:13:46.094Z,10.50
2018-09-29T04:19:00.411Z,4.97
2018-09-29T04:21:38.997Z,5.53
2018-09-29T04:24:09.509Z,4.67
2018-09-29T04:26:38.556Z,7.77
2018-09-29T04:29:07.907Z,7.70
2018-09-29T04:31:37.702Z,5.37
2018-09-29T04:34:06.733Z,4.93
2018-09-29T04:36:42.757Z,5.90
2018-09-29T04:39:12.642Z,6.27
2018-09-29T04:41:41.398Z,5.53
2018-09-29T04:44:10.836Z,5.17
2018-09-29T04:46:40.179Z,4.30
2018-09-29T04:49:08.887Z,9.97
2018-09-29T04:51:37.325Z,7.23
2018-09-29T04:54:05.736Z,7.10
2018-09-29T04:56:34.442Z,5.67
2018-09-29T04:59:02.941Z,6.87
2018-09-29T05:01:31.406Z,3.70
2018-09-29T05:03:59.826Z,6.43
2018-09-29T05:06:28.609Z,6.80
2018-09-29T05:08:57.554Z,4.10
2018-09-29T05:11:25.980Z,7.67
2018-09-29T05:13:54.403Z,4.70
2018-09-29T05:16:23.200Z,8.13
2018-09-29T05:18:51.550Z,5.30
2018-09-29T05:21:19.895Z,5.73
2018-09-29T05:23:48.206Z,5.73
2018-09-29T05:26:16.575Z,6.07
2018-09-29T05:28:44.899Z,5.90
2018-09-29T05:31:13.242Z,7.87
2018-09-29T05:33:41.563Z,6.07
2018-09-29T05:36:09.911Z,5.20
2018-09-29T05:38:38.274Z,6.63
2018-09-29T05:41:06.613Z,6.00
2018-09-29T05:43:34.938Z,8.97
2018-09-29T05:46:03.294Z,6.70
2018-09-29T05:48:31.612Z,8.20
2018-09-29T05:50:59.947Z,8.50
2018-09-29T05:53:28.270Z,4.33
2018-09-29T05:55:56.615Z,8.33
2018-09-29T05:58:24.926Z,7.83
2018-09-29T06:00:53.256Z,3.80
2018-09-29T06:03:21.576Z,6.27
2018-09-29T06:05:49.977Z,6.43
2018-09-29T06:08:18.283Z,3.43
2018-09-29T06:10:46.645Z,4.33
2018-09-29T06:13:15.012Z,5.97
2018-09-29T06:15:43.327Z,5.60
2018-09-29T06:18:11.658Z,5.03
2018-09-29T06:20:39.981Z,4.67
2018-09-29T06:23:08.331Z,6.43
2018-09-29T06:25:36.669Z,6.73
2018-09-29T06:28:05.054Z,5.43
2018-09-29T06:30:33.383Z,8.23
2018-09-29T06:33:01.702Z,5.80
2018-09-29T06:35:30.138Z,5.17
2018-09-29T06:37:58.474Z,5.57
2018-09-29T06:40:26.790Z,8.33
2018-09-29T06:42:55.126Z,7.13
2018-09-29T06:45:23.444Z,6.47
2018-09-29T06:47:51.801Z,6.23
2018-09-29T06:50:21.203Z,6.40
2018-09-29T06:52:49.659Z,4.47
2018-09-29T06:55:18.995Z,8.23
2018-09-29T06:57:47.343Z,9.80
2018-09-29T07:00:15.662Z,5.90
2018-09-29T07:02:44.017Z,5.03
2018-09-29T07:05:12.382Z,6.10
2018-09-29T07:07:40.734Z,6.67
2018-09-29T07:10:09.086Z,6.67
2018-09-29T07:12:37.454Z,7.60
2018-09-29T07:15:06.603Z,6.77
2018-09-29T07:17:35.166Z,7.50
2018-09-29T07:20:03.618Z,6.83
2018-09-29T07:22:32.020Z,11.13
2018-09-29T07:25:00.378Z,9.77
2018-09-29T07:27:28.743Z,10.13
2018-09-29T07:29:57.099Z,13.53
2018-09-29T07:32:25.518Z,31.70
2018-09-29T07:34:53.958Z,16.37
2018-09-29T07:37:22.335Z,12.87
2018-09-29T07:39:50.677Z,20.57
2018-09-29T07:42:19.018Z,32.47
2018-09-29T07:44:47.398Z,6.00
2018-09-29T07:47:15.796Z,40.47
2018-09-29T07:49:44.142Z,18.43
2018-09-29T07:52:12.556Z,19.97
2018-09-29T07:54:40.979Z,24.20
2018-09-29T07:57:09.283Z,4.87
2018-09-29T07:59:37.674Z,9.40
2018-09-29T08:02:06.107Z,8.73
2018-09-29T08:04:34.482Z,18.10
2018-09-29T08:07:02.852Z,8.50
2018-09-29T08:09:31.218Z,5.50
2018-09-29T08:11:59.593Z,26.13
2018-09-29T08:14:28.143Z,16.93
2018-09-29T08:16:56.559Z,11.43
2018-09-29T08:19:24.910Z,11.93
2018-09-29T08:21:53.257Z,7.03
2018-09-29T08:24:21.706Z,6.67
2018-09-29T08:26:50.066Z,14.90
2018-09-29T08:29:18.426Z,9.13
2018-09-29T08:31:46.770Z,9.07
2018-09-29T08:34:15.139Z,24.40
2018-09-29T08:36:43.510Z,27.40
2018-09-29T08:39:11.874Z,21.83
2018-09-29T08:41:40.234Z,14.43
2018-09-29T08:44:08.586Z,12.10
2018-09-29T08:46:37.003Z,13.47
2018-09-29T08:49:05.375Z,9.40
2018-09-29T08:51:33.751Z,7.87
2018-09-29T08:54:02.160Z,6.03
2018-09-29T08:56:30.614Z,8.60
2018-09-29T08:58:59.066Z,5.30
2018-09-29T09:01:27.461Z,5.07
2018-09-29T09:03:55.901Z,7.93
2018-09-29T09:06:24.258Z,7.07
2018-09-29T09:08:52.619Z,8.37
2018-09-29T09:11:21.039Z,5.33
2018-09-29T09:13:49.427Z,4.20
2018-09-29T09:16:17.790Z,6.07
2018-09-29T09:18:46.166Z,5.23
2018-09-29T09:21:14.540Z,6.30
2018-09-29T09:23:42.958Z,3.83
2018-09-29T09:26:11.333Z,7.27
2018-09-29T09:28:39.659Z,2.93
2018-09-29T09:31:08.035Z,5.27
2018-09-29T09:33:36.514Z,5.73
2018-09-29T09:36:04.917Z,5.07
2018-09-29T09:38:33.297Z,4.63
2018-09-29T09:41:01.683Z,4.67
2018-09-29T09:43:30.100Z,7.10
2018-09-29T09:45:58.474Z,3.30
2018-09-29T09:48:26.854Z,6.53
2018-09-29T09:50:55.231Z,7.63
2018-09-29T09:53:23.584Z,9.70
2018-09-29T09:55:51.996Z,6.63
2018-09-29T09:58:20.350Z,5.50
2018-09-29T10:00:54.066Z,5.30
2018-09-29T10:03:30.443Z,5.03
2018-09-29T10:05:58.854Z,2.90
2018-09-29T10:08:27.693Z,9.97
2018-09-29T10:10:56.055Z,4.30
2018-09-29T10:13:24.414Z,8.50
2018-09-29T10:15:52.922Z,9.67
2018-09-29T10:18:21.330Z,3.87
2018-09-29T10:20:49.708Z,5.73
2018-09-29T10:23:18.067Z,6.87
2018-09-29T10:25:46.526Z,7.23
2018-09-29T10:28:14.911Z,5.67
2018-09-29T10:33:17.964Z,4.43
2018-09-29T10:35:46.350Z,4.57
2018-09-29T10:38:14.748Z,4.50
2018-09-29T10:40:43.127Z,4.67
2018-09-29T10:43:12.523Z,6.40
2018-09-29T10:45:41.084Z,6.00
2018-09-29T10:48:09.500Z,3.27
2018-09-29T10:50:37.966Z,4.33
2018-09-29T10:53:06.406Z,5.03
2018-09-29T10:55:34.814Z,6.73
2018-09-29T10:58:03.174Z,7.37
2018-09-29T11:00:31.535Z,8.83
2018-09-29T11:03:00.118Z,5.87
2018-09-29T11:05:28.481Z,8.43
2018-09-29T11:07:56.872Z,7.60
2018-09-29T11:10:25.297Z,11.77
2018-09-29T11:12:53.694Z,7.97
2018-09-29T11:15:22.134Z,7.27
2018-09-29T11:17:50.510Z,4.23
2018-09-29T11:20:18.868Z,5.50
2018-09-29T11:22:47.259Z,22.77
2018-09-29T11:25:15.634Z,16.63
2018-09-29T11:27:44.027Z,10.87
2018-09-29T11:30:12.390Z,4.63
2018-09-29T11:32:40.774Z,11.07
2018-09-29T11:35:09.123Z,6.10
2018-09-29T11:37:37.504Z,7.93
2018-09-29T11:40:05.879Z,10.83
2018-09-29T11:42:34.242Z,41.13
2018-09-29T11:45:02.623Z,10.30
2018-09-29T11:47:31.005Z,3.80
2018-09-29T11:49:59.357Z,9.85
2018-09-29T11:52:27.745Z,7.00
2018-09-29T11:54:56.084Z,4.42
2018-09-29T11:57:24.463Z,6.80
2018-09-29T11:59:52.810Z,6.72
2018-09-29T12:02:21.351Z,6.35
2018-09-29T12:04:49.794Z,20.50
2018-09-29T12:07:18.331Z,41.13
2018-09-29T12:09:46.535Z,9.63
2018-09-29T12:12:14.939Z,14.28
2018-09-29T12:14:43.278Z,3.52
2018-09-29T12:17:11.666Z,7.42
2018-09-29T12:19:40.019Z,5.12
2018-09-29T12:22:08.403Z,6.50
2018-09-29T12:24:36.730Z,8.23
2018-09-29T12:27:05.177Z,5.92
2018-09-29T12:29:33.662Z,10.08
2018-09-29T12:32:02.014Z,7.90
2018-09-29T12:34:30.385Z,6.60
2018-09-29T12:36:58.957Z,24.30
2018-09-29T12:39:27.204Z,15.50
2018-09-29T12:41:55.878Z,29.75
2018-09-29T12:44:24.349Z,11.28
2018-09-29T12:46:52.737Z,23.42
2018-09-29T12:49:21.092Z,18.92
2018-09-29T12:51:49.526Z,10.58
2018-09-29T12:54:17.956Z,28.30
2018-09-29T12:56:46.443Z,9.28
2018-09-29T12:59:15.308Z,24.00
2018-09-29T13:01:43.670Z,14.83
2018-09-29T13:04:12.075Z,5.55
2018-09-29T13:06:40.555Z,5.00
2018-09-29T13:09:08.971Z,17.02
2018-09-29T13:11:37.445Z,14.55
2018-09-29T13:14:06.056Z,14.30
2018-09-29T13:16:35.288Z,17.57
2018-09-29T13:19:03.723Z,27.55
2018-09-29T13:21:32.111Z,24.95
2018-09-29T13:24:00.479Z,18.42
2018-09-29T13:26:28.871Z,22.45
2018-09-29T13:28:57.296Z,22.75
2018-09-29T13:31:25.791Z,16.32
2018-09-29T13:33:54.203Z,22.48
2018-09-29T13:36:22.614Z,19.17
2018-09-29T13:38:50.954Z,6.17
2018-09-29T13:41:19.350Z,4.62
2018-09-29T13:43:47.696Z,5.65
2018-09-29T13:46:16.055Z,5.37
2018-09-29T13:48:44.437Z,6.75
2018-09-29T13:51:13.035Z,7.95
2018-09-29T13:53:41.797Z,4.37
2018-09-29T13:56:10.149Z,3.92
2018-09-29T13:58:38.567Z,19.42
2018-09-29T14:01:07.184Z,7.80
2018-09-29T14:03:35.972Z,10.58
2018-09-29T14:06:04.362Z,6.62
2018-09-29T14:08:32.786Z,17.90
2018-09-29T14:11:01.122Z,19.90
2018-09-29T14:13:29.600Z,21.10
2018-09-29T14:15:58.028Z,7.35
2018-09-29T14:18:26.418Z,7.10
2018-09-29T14:20:54.765Z,9.50
2018-09-29T14:23:23.159Z,19.12
2018-09-29T14:25:51.500Z,20.48
2018-09-29T14:28:19.890Z,104.12
2018-09-29T14:30:48.320Z,76.45
2018-09-29T14:33:16.731Z,32.55
2018-09-29T14:35:45.093Z,24.55
2018-09-29T14:38:13.462Z,5.03
2018-09-29T14:40:41.833Z,7.50
2018-09-29T14:43:10.195Z,5.03
2018-09-29T14:45:38.534Z,22.52
2018-09-29T14:48:06.907Z,22.73
2018-09-29T14:50:35.254Z,30.75
2018-09-29T14:53:03.725Z,84.10
2018-09-29T14:55:32.099Z,50.92
2018-09-29T14:58:00.564Z,20.08
2018-09-29T15:00:28.884Z,12.95
2018-09-29T15:02:57.253Z,51.02
2018-09-29T15:05:25.618Z,14.28
2018-09-29T15:07:54.049Z,15.23
2018-09-29T15:10:22.485Z,6.08
2018-09-29T15:12:50.910Z,27.87
2018-09-29T15:15:19.267Z,27.85
2018-09-29T15:17:47.760Z,40.55
2018-09-29T15:20:16.139Z,9.73
2018-09-29T15:22:44.470Z,9.30
2018-09-29T15:25:12.913Z,12.53
2018-09-29T15:27:41.520Z,6.37
2018-09-29T15:30:09.850Z,7.78
2018-09-29T15:32:38.279Z,9.18
2018-09-29T15:35:06.696Z,8.43
2018-09-29T15:37:35.107Z,10.32
2018-09-29T15:42:48.249Z,10.88
2018-09-29T15:45:16.534Z,5.78
2018-09-29T15:47:44.916Z,6.75
2018-09-29T15:50:13.279Z,7.37
2018-09-29T15:52:41.695Z,12.47
2018-09-29T15:55:10.070Z,195.85
2018-09-29T15:57:38.452Z,75.90
2018-09-29T16:00:06.839Z,27.27
2018-09-29T16:02:35.227Z,89.83
2018-09-29T16:05:03.617Z,34.13
2018-09-29T16:07:31.984Z,61.68
2018-09-29T16:10:05.999Z,37.08
2018-09-29T16:12:34.518Z,57.78
2018-09-29T16:15:02.905Z,82.42
2018-09-29T16:17:31.334Z,29.12
2018-09-29T16:19:59.707Z,41.25
2018-09-29T16:22:28.085Z,42.43
2018-09-29T16:25:00.741Z,68.35
2018-09-29T16:27:34.531Z,58.75
2018-09-29T16:30:05.755Z,52.40
2018-09-29T16:32:36.278Z,36.45
2018-09-29T16:35:06.795Z,58.25
2018-09-29T16:37:38.178Z,61.05
2018-09-29T16:40:09.332Z,85.97
2018-09-29T16:42:39.825Z,114.88
2018-09-29T16:45:09.988Z,56.18
2018-09-29T16:47:39.665Z,44.27
2018-09-29T16:50:08.197Z,35.30
2018-09-29T16:52:36.600Z,133.43
2018-09-29T16:55:05.619Z,35.77
2018-09-29T16:57:38.221Z,56.20
2018-09-29T17:00:06.607Z,30.03
2018-09-29T17:02:35.011Z,24.93
2018-09-29T17:05:05.031Z,30.27
2018-09-29T17:07:34.805Z,61.97
2018-09-29T17:10:04.566Z,56.90
2018-09-29T17:12:33.782Z,133.30
2018-09-29T17:15:03.197Z,135.73
2018-09-29T17:17:33.242Z,130.23
2018-09-29T17:20:02.851Z,167.13
2018-09-29T17:22:32.013Z,49.17
2018-09-29T17:25:01.349Z,94.30
2018-09-29T17:27:30.824Z,258.50
2018-09-29T17:30:01.870Z,180.83
2018-09-29T17:32:30.463Z,47.00
2018-09-29T17:34:59.452Z,64.83
2018-09-29T17:37:28.477Z,108.90
2018-09-29T17:39:57.285Z,63.60
2018-09-29T17:42:25.647Z,72.03
2018-09-29T17:44:54.102Z,81.60
2018-09-29T17:47:23.094Z,62.13
2018-09-29T17:49:52.055Z,85.87
2018-09-29T17:52:20.937Z,89.83
2018-09-29T17:54:49.990Z,117.67
2018-09-29T17:57:19.153Z,150.87
2018-09-29T17:59:47.705Z,63.00
2018-09-29T18:02:16.114Z,88.00
2018-09-29T18:04:44.498Z,41.40
2018-09-29T18:07:12.902Z,66.37
2018-09-29T18:09:42.573Z,67.90
2018-09-29T18:12:11.991Z,65.90
2018-09-29T18:14:41.500Z,61.60
2018-09-29T18:17:10.371Z,72.87
2018-09-29T18:19:40.115Z,99.30
2018-09-29T18:22:10.043Z,179.47
2018-09-29T18:24:39.372Z,130.70
2018-09-29T18:27:09.104Z,74.77
2018-09-29T18:29:41.590Z,65.63
2018-09-29T18:32:11.919Z,66.90
2018-09-29T18:34:41.418Z,65.63
2018-09-29T18:37:09.914Z,165.13
2018-09-29T18:39:39.351Z,212.10
2018-09-29T18:42:08.498Z,122.93
2018-09-29T18:44:45.152Z,146.03
2018-09-29T18:47:15.211Z,39.97
2018-09-29T18:52:37.390Z,72.67
2018-09-29T18:55:09.541Z,101.97
2018-09-29T18:57:37.983Z,73.47
2018-09-29T19:00:06.439Z,110.30
2018-09-29T19:02:34.826Z,91.97
2018-09-29T19:05:03.202Z,67.73
2018-09-29T19:07:31.874Z,47.03
2018-09-29T19:10:00.243Z,63.60
2018-09-29T19:12:28.645Z,54.80
2018-09-29T19:14:57.126Z,65.30
2018-09-29T19:17:25.506Z,104.10
2018-09-29T19:19:54.023Z,83.27
2018-09-29T19:22:22.412Z,62.77
2018-09-29T19:24:50.802Z,29.50
2018-09-29T19:27:19.201Z,27.43
2018-09-29T19:29:47.598Z,76.77
2018-09-29T19:32:15.977Z,27.93
2018-09-29T19:34:44.371Z,69.60
2018-09-29T19:37:12.944Z,31.37
2018-09-29T19:39:41.357Z,40.13
2018-09-29T19:42:09.807Z,88.33
2018-09-29T19:44:38.187Z,66.53
2018-09-29T19:47:06.697Z,65.17
2018-09-29T19:49:35.123Z,55.13
2018-09-29T19:52:03.548Z,70.57
2018-09-29T19:54:31.898Z,52.67
2018-09-29T19:57:00.298Z,55.17
2018-09-29T19:59:28.674Z,73.57
2018-09-29T20:01:57.184Z,56.87
2018-09-29T20:04:25.569Z,85.27
2018-09-29T20:06:53.978Z,102.33
2018-09-29T20:09:22.323Z,81.60
2018-09-29T20:11:50.746Z,35.20
2018-09-29T20:14:19.183Z,99.27
2018-09-29T20:16:47.599Z,55.10
2018-09-29T20:19:16.007Z,33.30
2018-09-29T20:21:44.434Z,33.37
2018-09-29T20:24:12.861Z,34.63
2018-09-29T20:26:41.256Z,56.03
2018-09-29T20:29:09.638Z,22.17
2018-09-29T20:31:38.038Z,32.10
2018-09-29T20:34:06.472Z,36.17
2018-09-29T20:36:34.922Z,92.93
2018-09-29T20:39:04.068Z,61.30
2018-09-29T20:41:32.450Z,42.03
2018-09-29T20:44:00.866Z,72.13
2018-09-29T20:46:29.266Z,58.03
2018-09-29T20:48:57.674Z,19.80
2018-09-29T20:51:26.130Z,36.03
2018-09-29T20:53:54.823Z,22.87
2018-09-29T20:56:23.210Z,29.53
2018-09-29T20:58:51.605Z,22.70
2018-09-29T21:01:20.002Z,11.27
2018-09-29T21:03:48.426Z,6.63
2018-09-29T21:06:16.800Z,7.23
2018-09-29T21:08:45.238Z,6.23
2018-09-29T21:11:13.638Z,7.47
2018-09-29T21:13:42.043Z,10.00
2018-09-29T21:16:10.389Z,7.97
2018-09-29T21:18:38.802Z,6.67
2018-09-29T21:21:07.242Z,11.47
2018-09-29T21:23:35.672Z,62.87
2018-09-29T21:26:04.226Z,16.03
2018-09-29T21:28:33.682Z,64.20
2018-09-29T21:31:02.063Z,43.70
2018-09-29T21:33:30.425Z,33.90
2018-09-29T21:35:58.794Z,28.67
2018-09-29T21:38:27.223Z,14.93
2018-09-29T21:40:55.569Z,7.53
2018-09-29T21:43:24.138Z,5.63
2018-09-29T21:45:52.574Z,5.27
2018-09-29T21:48:21.234Z,5.87
2018-09-29T21:50:50.184Z,3.97
2018-09-29T21:53:18.682Z,3.67
2018-09-29T21:55:47.251Z,6.20
2018-09-29T21:58:15.920Z,6.23
2018-09-29T22:00:45.331Z,4.10
2018-09-29T22:03:15.502Z,5.10
2018-09-29T22:05:44.453Z,4.50
2018-09-29T22:08:13.074Z,7.00
2018-09-29T22:10:41.530Z,3.97
2018-09-29T22:13:10.253Z,5.83
2018-09-29T22:15:39.066Z,4.77
2018-09-29T22:18:07.699Z,6.03
2018-09-29T22:20:36.350Z,5.37
2018-09-29T22:23:04.724Z,4.13
2018-09-29T22:25:33.252Z,4.97
2018-09-29T22:28:01.784Z,6.00
2018-09-29T22:30:30.295Z,5.00
2018-09-29T22:32:59.568Z,7.07
2018-09-29T22:35:28.247Z,6.80
2018-09-29T22:37:56.967Z,5.03
2018-09-29T22:40:25.471Z,4.57
2018-09-29T22:42:54.107Z,9.20
2018-09-29T22:45:22.650Z,4.97
2018-09-29T22:47:51.070Z,4.90
2018-09-29T22:50:19.502Z,6.63
2018-09-29T22:52:48.214Z,5.60
2018-09-29T22:55:16.857Z,6.73
2018-09-29T22:57:45.460Z,3.53
2018-09-29T23:00:14.018Z,4.77
2018-09-29T23:02:42.553Z,4.87
2018-09-29T23:05:11.124Z,7.10
2018-09-29T23:07:39.576Z,6.83
2018-09-29T23:10:08.697Z,7.00
2018-09-29T23:12:37.212Z,6.47
2018-09-29T23:15:05.698Z,6.07
2018-09-29T23:17:34.310Z,4.27
2018-09-29T23:20:03.827Z,5.67
2018-09-29T23:22:32.312Z,5.63
2018-09-29T23:25:00.860Z,6.27
2018-09-29T23:27:29.319Z,3.13
2018-09-29T23:29:57.737Z,3.43
2018-09-29T23:32:26.497Z,4.93
2018-09-29T23:34:55.009Z,5.40
2018-09-29T23:37:23.486Z,5.30
2018-09-29T23:39:52.173Z,5.87
2018-09-29T23:42:20.708Z,4.90
2018-09-29T23:44:49.288Z,5.50
2018-09-29T23:47:17.860Z,3.87
2018-09-29T23:49:46.358Z,6.07
2018-09-29T23:52:14.937Z,3.80
2018-09-29T23:54:43.392Z,4.53
2018-09-29T23:57:11.935Z,3.60
2018-09-29T23:59:40.638Z,4.63
